sensor_id;sensor_type;location;lat;lon;timestamp;temperature;humidity
40670;DHT22;26355;45.528;9.234;2023-08-31T00:02:00;24.00;99.90
40670;DHT22;26355;45.528;9.234;2023-08-31T00:04:26;23.90;99.90
40670;DHT22;26355;45.528;9.234;2023-08-31T00:06:52;23.90;99.90
40670;DHT22;26355;45.528;9.234;2023-08-31T00:09:17;23.90;99.90
40670;DHT22;26355;45.528;9.234;2023-08-31T00:11:44;23.80;99.90
40670;DHT22;26355;45.528;9.234;2023-08-31T00:14:10;23.80;99.90
40670;DHT22;26355;45.528;9.234;2023-08-31T00:16:35;23.80;99.90
40670;DHT22;26355;45.528;9.234;2023-08-31T00:19:02;23.80;99.90
40670;DHT22;26355;45.528;9.234;2023-08-31T00:21:28;23.90;99.90
40670;DHT22;26355;45.528;9.234;2023-08-31T00:23:55;23.90;99.90
40670;DHT22;26355;45.528;9.234;2023-08-31T00:26:21;23.90;99.90
40670;DHT22;26355;45.528;9.234;2023-08-31T00:28:46;23.80;99.90
40670;DHT22;26355;45.528;9.234;2023-08-31T00:31:12;23.80;99.90
40670;DHT22;26355;45.528;9.234;2023-08-31T00:33:38;23.90;99.90
40670;DHT22;26355;45.528;9.234;2023-08-31T00:36:04;23.90;99.90
40670;DHT22;26355;45.528;9.234;2023-08-31T00:38:31;23.80;99.90
40670;DHT22;26355;45.528;9.234;2023-08-31T00:40:57;23.70;99.90
40670;DHT22;26355;45.528;9.234;2023-08-31T00:43:22;23.70;99.90
40670;DHT22;26355;45.528;9.234;2023-08-31T00:45:50;23.70;99.90
40670;DHT22;26355;45.528;9.234;2023-08-31T00:48:17;23.70;99.90
40670;DHT22;26355;45.528;9.234;2023-08-31T00:50:46;23.70;99.90
40670;DHT22;26355;45.528;9.234;2023-08-31T00:53:13;23.70;99.90
40670;DHT22;26355;45.528;9.234;2023-08-31T00:55:39;23.60;99.90
40670;DHT22;26355;45.528;9.234;2023-08-31T00:58:08;23.70;99.90
40670;DHT22;26355;45.528;9.234;2023-08-31T01:06:20;23.60;99.90
40670;DHT22;26355;45.528;9.234;2023-08-31T01:09:02;23.60;99.90
40670;DHT22;26355;45.528;9.234;2023-08-31T01:12:02;23.60;99.90
40670;DHT22;26355;45.528;9.234;2023-08-31T01:14:34;23.50;99.90
40670;DHT22;26355;45.528;9.234;2023-08-31T01:17:03;23.50;99.90
40670;DHT22;26355;45.528;9.234;2023-08-31T01:19:45;23.50;99.90
40670;DHT22;26355;45.528;9.234;2023-08-31T01:22:25;23.50;99.90
40670;DHT22;26355;45.528;9.234;2023-08-31T01:24:53;23.40;99.90
40670;DHT22;26355;45.528;9.234;2023-08-31T01:27:19;23.50;99.90
40670;DHT22;26355;45.528;9.234;2023-08-31T01:29:45;23.40;99.90
40670;DHT22;26355;45.528;9.234;2023-08-31T01:32:11;23.40;99.90
40670;DHT22;26355;45.528;9.234;2023-08-31T01:34:36;23.40;99.90
40670;DHT22;26355;45.528;9.234;2023-08-31T01:37:07;23.40;99.90
40670;DHT22;26355;45.528;9.234;2023-08-31T01:39:45;23.30;99.90
40670;DHT22;26355;45.528;9.234;2023-08-31T01:42:13;23.30;99.90
40670;DHT22;26355;45.528;9.234;2023-08-31T01:44:39;23.20;99.90
40670;DHT22;26355;45.528;9.234;2023-08-31T01:47:06;23.20;99.90
40670;DHT22;26355;45.528;9.234;2023-08-31T01:49:39;23.30;99.90
40670;DHT22;26355;45.528;9.234;2023-08-31T01:52:05;23.20;99.90
40670;DHT22;26355;45.528;9.234;2023-08-31T01:54:31;23.20;99.90
40670;DHT22;26355;45.528;9.234;2023-08-31T01:56:57;23.20;99.90
40670;DHT22;26355;45.528;9.234;2023-08-31T01:59:23;23.10;99.90
40670;DHT22;26355;45.528;9.234;2023-08-31T02:01:48;23.20;99.90
40670;DHT22;26355;45.528;9.234;2023-08-31T02:04:14;23.10;99.90
40670;DHT22;26355;45.528;9.234;2023-08-31T02:06:40;23.10;99.90
40670;DHT22;26355;45.528;9.234;2023-08-31T02:09:06;23.10;99.90
40670;DHT22;26355;45.528;9.234;2023-08-31T02:11:31;23.20;99.90
40670;DHT22;26355;45.528;9.234;2023-08-31T02:13:58;23.10;99.90
40670;DHT22;26355;45.528;9.234;2023-08-31T02:16:23;23.10;99.90
40670;DHT22;26355;45.528;9.234;2023-08-31T02:18:49;23.10;99.90
40670;DHT22;26355;45.528;9.234;2023-08-31T02:21:15;23.10;99.90
40670;DHT22;26355;45.528;9.234;2023-08-31T02:23:40;22.90;99.90
40670;DHT22;26355;45.528;9.234;2023-08-31T02:26:06;23.00;99.90
40670;DHT22;26355;45.528;9.234;2023-08-31T02:28:31;23.00;99.90
40670;DHT22;26355;45.528;9.234;2023-08-31T02:30:58;22.90;99.90
40670;DHT22;26355;45.528;9.234;2023-08-31T02:33:24;23.00;99.90
40670;DHT22;26355;45.528;9.234;2023-08-31T02:35:50;22.90;99.90
40670;DHT22;26355;45.528;9.234;2023-08-31T02:38:15;22.90;99.90
40670;DHT22;26355;45.528;9.234;2023-08-31T02:40:41;22.80;99.90
40670;DHT22;26355;45.528;9.234;2023-08-31T02:43:07;22.70;99.90
40670;DHT22;26355;45.528;9.234;2023-08-31T02:45:32;22.70;99.90
40670;DHT22;26355;45.528;9.234;2023-08-31T02:47:58;22.60;99.90
40670;DHT22;26355;45.528;9.234;2023-08-31T02:50:24;22.70;99.90
40670;DHT22;26355;45.528;9.234;2023-08-31T02:52:49;22.60;99.90
40670;DHT22;26355;45.528;9.234;2023-08-31T02:55:15;22.60;99.90
40670;DHT22;26355;45.528;9.234;2023-08-31T02:57:41;22.60;99.90
40670;DHT22;26355;45.528;9.234;2023-08-31T03:00:07;22.60;99.90
40670;DHT22;26355;45.528;9.234;2023-08-31T03:02:38;22.50;99.90
40670;DHT22;26355;45.528;9.234;2023-08-31T03:05:04;22.50;99.90
40670;DHT22;26355;45.528;9.234;2023-08-31T03:07:30;22.50;99.90
40670;DHT22;26355;45.528;9.234;2023-08-31T03:09:55;22.50;99.90
40670;DHT22;26355;45.528;9.234;2023-08-31T03:12:21;22.50;99.90
40670;DHT22;26355;45.528;9.234;2023-08-31T03:14:46;22.40;99.90
40670;DHT22;26355;45.528;9.234;2023-08-31T03:17:12;22.40;99.90
40670;DHT22;26355;45.528;9.234;2023-08-31T03:19:38;22.40;99.90
40670;DHT22;26355;45.528;9.234;2023-08-31T03:22:03;22.40;99.90
40670;DHT22;26355;45.528;9.234;2023-08-31T03:24:29;22.40;99.90
40670;DHT22;26355;45.528;9.234;2023-08-31T03:26:54;22.40;99.90
40670;DHT22;26355;45.528;9.234;2023-08-31T03:29:20;22.40;99.90
40670;DHT22;26355;45.528;9.234;2023-08-31T03:31:46;22.40;99.90
40670;DHT22;26355;45.528;9.234;2023-08-31T03:34:11;22.40;99.90
40670;DHT22;26355;45.528;9.234;2023-08-31T03:36:37;22.50;99.90
40670;DHT22;26355;45.528;9.234;2023-08-31T03:39:03;22.40;99.90
40670;DHT22;26355;45.528;9.234;2023-08-31T03:41:28;22.40;99.90
40670;DHT22;26355;45.528;9.234;2023-08-31T03:43:54;22.40;99.90
40670;DHT22;26355;45.528;9.234;2023-08-31T03:46:19;22.50;99.90
40670;DHT22;26355;45.528;9.234;2023-08-31T03:48:45;22.40;99.90
40670;DHT22;26355;45.528;9.234;2023-08-31T03:51:11;22.50;99.90
40670;DHT22;26355;45.528;9.234;2023-08-31T03:53:36;22.40;99.90
40670;DHT22;26355;45.528;9.234;2023-08-31T03:56:02;22.40;99.90
40670;DHT22;26355;45.528;9.234;2023-08-31T03:58:29;22.30;99.90
40670;DHT22;26355;45.528;9.234;2023-08-31T04:00:55;22.30;99.90
40670;DHT22;26355;45.528;9.234;2023-08-31T04:03:20;22.20;99.90
40670;DHT22;26355;45.528;9.234;2023-08-31T04:05:46;22.30;99.90
40670;DHT22;26355;45.528;9.234;2023-08-31T04:08:12;22.30;99.90
40670;DHT22;26355;45.528;9.234;2023-08-31T04:10:38;22.30;99.90
40670;DHT22;26355;45.528;9.234;2023-08-31T04:13:03;22.30;99.90
40670;DHT22;26355;45.528;9.234;2023-08-31T04:15:29;22.30;99.90
40670;DHT22;26355;45.528;9.234;2023-08-31T04:17:56;22.30;99.90
40670;DHT22;26355;45.528;9.234;2023-08-31T04:20:21;22.10;99.90
40670;DHT22;26355;45.528;9.234;2023-08-31T04:22:47;22.20;99.90
40670;DHT22;26355;45.528;9.234;2023-08-31T04:25:13;22.10;99.90
40670;DHT22;26355;45.528;9.234;2023-08-31T04:27:38;22.10;99.90
40670;DHT22;26355;45.528;9.234;2023-08-31T04:30:07;22.00;99.90
40670;DHT22;26355;45.528;9.234;2023-08-31T04:32:33;22.00;99.90
40670;DHT22;26355;45.528;9.234;2023-08-31T04:34:59;22.00;99.90
40670;DHT22;26355;45.528;9.234;2023-08-31T04:37:24;22.10;99.90
40670;DHT22;26355;45.528;9.234;2023-08-31T04:39:50;22.00;99.90
40670;DHT22;26355;45.528;9.234;2023-08-31T04:42:15;22.00;99.90
40670;DHT22;26355;45.528;9.234;2023-08-31T04:44:44;22.00;99.90
40670;DHT22;26355;45.528;9.234;2023-08-31T04:47:11;22.00;99.90
40670;DHT22;26355;45.528;9.234;2023-08-31T04:49:36;21.90;99.90
40670;DHT22;26355;45.528;9.234;2023-08-31T04:52:02;21.90;99.90
40670;DHT22;26355;45.528;9.234;2023-08-31T04:54:27;21.90;99.90
40670;DHT22;26355;45.528;9.234;2023-08-31T04:56:53;22.00;99.90
40670;DHT22;26355;45.528;9.234;2023-08-31T04:59:18;21.90;99.90
40670;DHT22;26355;45.528;9.234;2023-08-31T05:01:44;22.00;99.90
40670;DHT22;26355;45.528;9.234;2023-08-31T05:04:09;22.00;99.90
40670;DHT22;26355;45.528;9.234;2023-08-31T05:06:35;22.00;99.90
40670;DHT22;26355;45.528;9.234;2023-08-31T05:09:01;21.90;99.90
40670;DHT22;26355;45.528;9.234;2023-08-31T05:11:26;21.90;99.90
40670;DHT22;26355;45.528;9.234;2023-08-31T05:13:52;22.00;99.90
40670;DHT22;26355;45.528;9.234;2023-08-31T05:16:17;21.90;99.90
40670;DHT22;26355;45.528;9.234;2023-08-31T05:18:43;21.90;99.90
40670;DHT22;26355;45.528;9.234;2023-08-31T05:21:08;21.90;99.90
40670;DHT22;26355;45.528;9.234;2023-08-31T05:23:34;21.90;99.90
40670;DHT22;26355;45.528;9.234;2023-08-31T05:26:00;21.90;99.90
40670;DHT22;26355;45.528;9.234;2023-08-31T05:28:27;21.80;99.90
40670;DHT22;26355;45.528;9.234;2023-08-31T05:30:54;21.80;99.90
40670;DHT22;26355;45.528;9.234;2023-08-31T05:33:20;21.80;99.90
40670;DHT22;26355;45.528;9.234;2023-08-31T05:35:47;21.80;99.90
40670;DHT22;26355;45.528;9.234;2023-08-31T05:38:13;21.80;99.90
40670;DHT22;26355;45.528;9.234;2023-08-31T05:40:39;21.80;99.90
40670;DHT22;26355;45.528;9.234;2023-08-31T05:43:05;21.80;99.90
40670;DHT22;26355;45.528;9.234;2023-08-31T05:45:34;21.80;99.90
40670;DHT22;26355;45.528;9.234;2023-08-31T05:48:00;21.90;99.90
40670;DHT22;26355;45.528;9.234;2023-08-31T05:50:26;21.90;99.90
40670;DHT22;26355;45.528;9.234;2023-08-31T05:52:52;22.00;99.90
40670;DHT22;26355;45.528;9.234;2023-08-31T05:55:17;22.00;99.90
40670;DHT22;26355;45.528;9.234;2023-08-31T05:57:43;22.00;99.90
40670;DHT22;26355;45.528;9.234;2023-08-31T06:00:09;22.10;99.90
40670;DHT22;26355;45.528;9.234;2023-08-31T06:02:34;22.20;99.90
40670;DHT22;26355;45.528;9.234;2023-08-31T06:05:01;22.30;99.90
40670;DHT22;26355;45.528;9.234;2023-08-31T06:07:27;22.40;99.90
40670;DHT22;26355;45.528;9.234;2023-08-31T06:09:54;22.40;99.90
40670;DHT22;26355;45.528;9.234;2023-08-31T06:12:20;22.30;99.90
40670;DHT22;26355;45.528;9.234;2023-08-31T06:14:46;22.40;99.90
40670;DHT22;26355;45.528;9.234;2023-08-31T06:17:11;22.40;99.90
40670;DHT22;26355;45.528;9.234;2023-08-31T06:19:38;22.40;99.90
40670;DHT22;26355;45.528;9.234;2023-08-31T06:22:04;22.40;99.90
40670;DHT22;26355;45.528;9.234;2023-08-31T06:24:30;22.40;99.90
40670;DHT22;26355;45.528;9.234;2023-08-31T06:26:55;22.30;99.90
40670;DHT22;26355;45.528;9.234;2023-08-31T06:29:22;22.40;99.90
40670;DHT22;26355;45.528;9.234;2023-08-31T06:31:47;22.40;99.90
40670;DHT22;26355;45.528;9.234;2023-08-31T06:34:13;22.40;99.90
40670;DHT22;26355;45.528;9.234;2023-08-31T06:36:39;22.50;99.90
40670;DHT22;26355;45.528;9.234;2023-08-31T06:39:06;22.50;99.90
40670;DHT22;26355;45.528;9.234;2023-08-31T06:41:31;22.60;99.90
40670;DHT22;26355;45.528;9.234;2023-08-31T06:43:57;22.70;99.90
40670;DHT22;26355;45.528;9.234;2023-08-31T06:46:23;22.80;99.90
40670;DHT22;26355;45.528;9.234;2023-08-31T06:48:48;22.90;99.90
40670;DHT22;26355;45.528;9.234;2023-08-31T06:51:14;22.90;99.90
40670;DHT22;26355;45.528;9.234;2023-08-31T06:53:42;23.00;99.90
40670;DHT22;26355;45.528;9.234;2023-08-31T06:56:08;23.00;99.90
40670;DHT22;26355;45.528;9.234;2023-08-31T06:58:34;23.10;99.90
40670;DHT22;26355;45.528;9.234;2023-08-31T07:01:00;23.20;99.90
40670;DHT22;26355;45.528;9.234;2023-08-31T07:03:25;23.40;99.90
40670;DHT22;26355;45.528;9.234;2023-08-31T07:05:51;23.60;99.90
40670;DHT22;26355;45.528;9.234;2023-08-31T07:08:17;23.80;99.90
40670;DHT22;26355;45.528;9.234;2023-08-31T07:10:42;24.00;99.90
40670;DHT22;26355;45.528;9.234;2023-08-31T07:13:08;24.20;99.90
40670;DHT22;26355;45.528;9.234;2023-08-31T07:15:34;24.50;99.90
40670;DHT22;26355;45.528;9.234;2023-08-31T07:17:59;24.50;99.90
40670;DHT22;26355;45.528;9.234;2023-08-31T07:20:25;24.40;99.90
40670;DHT22;26355;45.528;9.234;2023-08-31T07:22:51;24.60;99.90
40670;DHT22;26355;45.528;9.234;2023-08-31T07:25:16;24.80;99.90
40670;DHT22;26355;45.528;9.234;2023-08-31T07:27:42;24.90;99.90
40670;DHT22;26355;45.528;9.234;2023-08-31T07:30:08;25.00;99.90
40670;DHT22;26355;45.528;9.234;2023-08-31T07:32:35;25.10;99.90
40670;DHT22;26355;45.528;9.234;2023-08-31T07:35:01;25.20;99.90
40670;DHT22;26355;45.528;9.234;2023-08-31T07:37:26;25.20;99.90
40670;DHT22;26355;45.528;9.234;2023-08-31T07:39:52;25.20;99.90
40670;DHT22;26355;45.528;9.234;2023-08-31T07:42:17;25.40;99.90
40670;DHT22;26355;45.528;9.234;2023-08-31T07:44:43;25.40;99.90
40670;DHT22;26355;45.528;9.234;2023-08-31T07:47:13;25.40;99.90
40670;DHT22;26355;45.528;9.234;2023-08-31T07:49:39;25.50;99.90
40670;DHT22;26355;45.528;9.234;2023-08-31T07:52:05;25.40;99.90
40670;DHT22;26355;45.528;9.234;2023-08-31T07:54:30;25.40;99.90
40670;DHT22;26355;45.528;9.234;2023-08-31T07:56:56;25.40;99.90
40670;DHT22;26355;45.528;9.234;2023-08-31T07:59:21;25.50;99.90
40670;DHT22;26355;45.528;9.234;2023-08-31T08:01:48;25.50;99.90
40670;DHT22;26355;45.528;9.234;2023-08-31T08:04:13;25.60;99.90
40670;DHT22;26355;45.528;9.234;2023-08-31T08:06:39;25.50;99.90
40670;DHT22;26355;45.528;9.234;2023-08-31T08:09:04;25.50;99.90
40670;DHT22;26355;45.528;9.234;2023-08-31T08:11:31;25.50;99.90
40670;DHT22;26355;45.528;9.234;2023-08-31T08:13:56;25.60;99.90
40670;DHT22;26355;45.528;9.234;2023-08-31T08:16:22;25.80;99.90
40670;DHT22;26355;45.528;9.234;2023-08-31T08:18:48;25.80;99.90
40670;DHT22;26355;45.528;9.234;2023-08-31T08:21:13;25.90;99.90
40670;DHT22;26355;45.528;9.234;2023-08-31T08:23:39;26.00;99.90
40670;DHT22;26355;45.528;9.234;2023-08-31T08:26:04;26.00;99.90
40670;DHT22;26355;45.528;9.234;2023-08-31T08:28:30;25.80;99.90
40670;DHT22;26355;45.528;9.234;2023-08-31T08:30:55;25.90;99.90
40670;DHT22;26355;45.528;9.234;2023-08-31T08:33:21;26.00;99.90
40670;DHT22;26355;45.528;9.234;2023-08-31T08:35:47;26.00;99.90
40670;DHT22;26355;45.528;9.234;2023-08-31T08:38:12;25.90;99.90
40670;DHT22;26355;45.528;9.234;2023-08-31T08:40:38;26.00;99.90
40670;DHT22;26355;45.528;9.234;2023-08-31T08:43:07;26.10;99.90
40670;DHT22;26355;45.528;9.234;2023-08-31T08:45:38;26.10;99.90
40670;DHT22;26355;45.528;9.234;2023-08-31T08:48:08;26.20;99.90
40670;DHT22;26355;45.528;9.234;2023-08-31T08:50:35;26.40;99.90
40670;DHT22;26355;45.528;9.234;2023-08-31T08:53:05;26.40;99.90
40670;DHT22;26355;45.528;9.234;2023-08-31T08:55:31;26.50;99.90
40670;DHT22;26355;45.528;9.234;2023-08-31T08:57:58;26.40;99.90
40670;DHT22;26355;45.528;9.234;2023-08-31T09:00:26;26.30;99.90
40670;DHT22;26355;45.528;9.234;2023-08-31T09:02:52;26.30;99.90
40670;DHT22;26355;45.528;9.234;2023-08-31T09:05:18;26.40;99.90
40670;DHT22;26355;45.528;9.234;2023-08-31T09:08:06;26.60;99.90
40670;DHT22;26355;45.528;9.234;2023-08-31T09:10:44;26.60;99.90
40670;DHT22;26355;45.528;9.234;2023-08-31T09:13:13;26.60;99.90
40670;DHT22;26355;45.528;9.234;2023-08-31T09:15:44;26.70;99.90
40670;DHT22;26355;45.528;9.234;2023-08-31T09:18:23;26.60;99.90
40670;DHT22;26355;45.528;9.234;2023-08-31T09:20:50;26.70;99.90
40670;DHT22;26355;45.528;9.234;2023-08-31T09:23:16;26.90;99.90
40670;DHT22;26355;45.528;9.234;2023-08-31T09:25:46;27.00;99.90
40670;DHT22;26355;45.528;9.234;2023-08-31T09:28:14;27.00;99.90
40670;DHT22;26355;45.528;9.234;2023-08-31T09:30:39;27.10;99.90
40670;DHT22;26355;45.528;9.234;2023-08-31T09:33:14;27.20;99.90
40670;DHT22;26355;45.528;9.234;2023-08-31T09:35:50;27.30;99.90
40670;DHT22;26355;45.528;9.234;2023-08-31T09:38:18;27.40;99.90
40670;DHT22;26355;45.528;9.234;2023-08-31T09:40:44;27.40;99.90
40670;DHT22;26355;45.528;9.234;2023-08-31T09:43:10;27.40;99.90
40670;DHT22;26355;45.528;9.234;2023-08-31T09:45:37;27.20;99.90
40670;DHT22;26355;45.528;9.234;2023-08-31T09:48:04;27.20;99.90
40670;DHT22;26355;45.528;9.234;2023-08-31T09:50:31;27.30;99.90
40670;DHT22;26355;45.528;9.234;2023-08-31T09:53:04;27.20;99.90
40670;DHT22;26355;45.528;9.234;2023-08-31T09:55:31;27.40;99.90
40670;DHT22;26355;45.528;9.234;2023-08-31T09:57:59;27.50;99.90
40670;DHT22;26355;45.528;9.234;2023-08-31T10:00:29;27.70;99.90
40670;DHT22;26355;45.528;9.234;2023-08-31T10:02:58;27.80;99.90
40670;DHT22;26355;45.528;9.234;2023-08-31T10:05:25;28.00;99.90
40670;DHT22;26355;45.528;9.234;2023-08-31T10:07:51;28.20;99.90
40670;DHT22;26355;45.528;9.234;2023-08-31T10:10:17;28.30;99.90
40670;DHT22;26355;45.528;9.234;2023-08-31T10:12:44;28.20;99.90
40670;DHT22;26355;45.528;9.234;2023-08-31T10:15:11;28.00;99.90
40670;DHT22;26355;45.528;9.234;2023-08-31T10:17:39;28.00;99.90
40670;DHT22;26355;45.528;9.234;2023-08-31T10:20:07;28.00;99.90
40670;DHT22;26355;45.528;9.234;2023-08-31T10:22:33;27.90;99.90
40670;DHT22;26355;45.528;9.234;2023-08-31T10:25:07;27.80;99.90
40670;DHT22;26355;45.528;9.234;2023-08-31T10:27:39;27.60;99.90
40670;DHT22;26355;45.528;9.234;2023-08-31T10:35:56;27.90;99.90
40670;DHT22;26355;45.528;9.234;2023-08-31T10:38:27;28.10;99.90
40670;DHT22;26355;45.528;9.234;2023-08-31T10:43:54;28.30;99.90
40670;DHT22;26355;45.528;9.234;2023-08-31T10:46:31;28.10;99.90
40670;DHT22;26355;45.528;9.234;2023-08-31T10:48:57;28.00;99.90
40670;DHT22;26355;45.528;9.234;2023-08-31T10:51:31;28.00;99.90
40670;DHT22;26355;45.528;9.234;2023-08-31T10:54:31;28.10;99.90
40670;DHT22;26355;45.528;9.234;2023-08-31T10:59:40;28.20;99.90
40670;DHT22;26355;45.528;9.234;2023-08-31T11:02:06;28.30;99.90
40670;DHT22;26355;45.528;9.234;2023-08-31T11:04:52;28.20;99.90
40670;DHT22;26355;45.528;9.234;2023-08-31T11:07:19;28.10;99.90
40670;DHT22;26355;45.528;9.234;2023-08-31T11:09:46;27.80;99.90
40670;DHT22;26355;45.528;9.234;2023-08-31T11:12:12;28.00;99.90
40670;DHT22;26355;45.528;9.234;2023-08-31T11:14:39;28.00;99.90
40670;DHT22;26355;45.528;9.234;2023-08-31T11:17:05;28.20;99.90
40670;DHT22;26355;45.528;9.234;2023-08-31T11:19:32;28.30;99.90
40670;DHT22;26355;45.528;9.234;2023-08-31T11:21:58;28.50;99.90
40670;DHT22;26355;45.528;9.234;2023-08-31T11:24:25;28.60;99.90
40670;DHT22;26355;45.528;9.234;2023-08-31T11:26:51;28.70;99.90
40670;DHT22;26355;45.528;9.234;2023-08-31T11:29:17;28.80;99.90
40670;DHT22;26355;45.528;9.234;2023-08-31T11:31:43;29.00;99.90
40670;DHT22;26355;45.528;9.234;2023-08-31T11:34:12;29.20;99.90
40670;DHT22;26355;45.528;9.234;2023-08-31T11:36:38;29.30;99.90
40670;DHT22;26355;45.528;9.234;2023-08-31T11:39:06;29.40;99.90
40670;DHT22;26355;45.528;9.234;2023-08-31T11:41:35;29.40;99.90
40670;DHT22;26355;45.528;9.234;2023-08-31T11:44:03;29.40;99.90
40670;DHT22;26355;45.528;9.234;2023-08-31T11:46:30;29.30;99.90
40670;DHT22;26355;45.528;9.234;2023-08-31T11:48:58;29.40;99.90
40670;DHT22;26355;45.528;9.234;2023-08-31T11:51:23;29.30;99.90
40670;DHT22;26355;45.528;9.234;2023-08-31T11:53:49;29.30;99.90
40670;DHT22;26355;45.528;9.234;2023-08-31T11:56:15;29.40;99.90
40670;DHT22;26355;45.528;9.234;2023-08-31T11:58:42;29.50;99.90
40670;DHT22;26355;45.528;9.234;2023-08-31T12:01:17;29.60;99.90
40670;DHT22;26355;45.528;9.234;2023-08-31T12:03:45;29.70;99.90
40670;DHT22;26355;45.528;9.234;2023-08-31T12:06:11;29.40;99.90
40670;DHT22;26355;45.528;9.234;2023-08-31T12:08:37;29.40;99.90
40670;DHT22;26355;45.528;9.234;2023-08-31T12:11:02;29.40;99.90
40670;DHT22;26355;45.528;9.234;2023-08-31T12:13:28;29.40;99.90
40670;DHT22;26355;45.528;9.234;2023-08-31T12:15:55;29.30;99.50
40670;DHT22;26355;45.528;9.234;2023-08-31T12:18:20;29.10;99.20
40670;DHT22;26355;45.528;9.234;2023-08-31T12:20:47;29.00;99.20
40670;DHT22;26355;45.528;9.234;2023-08-31T12:23:13;29.00;99.30
40670;DHT22;26355;45.528;9.234;2023-08-31T12:25:48;29.00;99.60
40670;DHT22;26355;45.528;9.234;2023-08-31T12:28:14;29.00;99.90
40670;DHT22;26355;45.528;9.234;2023-08-31T12:30:42;28.90;99.70
40670;DHT22;26355;45.528;9.234;2023-08-31T12:33:09;28.80;99.90
40670;DHT22;26355;45.528;9.234;2023-08-31T12:35:35;28.80;99.80
40670;DHT22;26355;45.528;9.234;2023-08-31T12:38:01;28.80;99.80
40670;DHT22;26355;45.528;9.234;2023-08-31T12:40:27;28.90;99.70
40670;DHT22;26355;45.528;9.234;2023-08-31T12:42:52;29.00;99.70
40670;DHT22;26355;45.528;9.234;2023-08-31T12:45:18;29.00;99.90
40670;DHT22;26355;45.528;9.234;2023-08-31T12:47:44;28.90;99.70
40670;DHT22;26355;45.528;9.234;2023-08-31T12:50:09;29.00;99.80
40670;DHT22;26355;45.528;9.234;2023-08-31T12:52:35;29.00;99.90
40670;DHT22;26355;45.528;9.234;2023-08-31T12:55:01;29.00;99.80
40670;DHT22;26355;45.528;9.234;2023-08-31T12:57:27;29.10;99.70
40670;DHT22;26355;45.528;9.234;2023-08-31T12:59:52;29.10;99.70
40670;DHT22;26355;45.528;9.234;2023-08-31T13:02:18;29.20;99.90
40670;DHT22;26355;45.528;9.234;2023-08-31T13:04:45;29.20;99.90
40670;DHT22;26355;45.528;9.234;2023-08-31T13:07:10;29.30;99.70
40670;DHT22;26355;45.528;9.234;2023-08-31T13:09:36;29.40;99.40
40670;DHT22;26355;45.528;9.234;2023-08-31T13:12:02;29.20;98.50
40670;DHT22;26355;45.528;9.234;2023-08-31T13:14:27;29.10;98.80
40670;DHT22;26355;45.528;9.234;2023-08-31T13:16:53;29.00;98.90
40670;DHT22;26355;45.528;9.234;2023-08-31T13:19:19;28.90;98.50
40670;DHT22;26355;45.528;9.234;2023-08-31T13:21:45;28.90;98.40
40670;DHT22;26355;45.528;9.234;2023-08-31T13:24:11;28.80;98.40
40670;DHT22;26355;45.528;9.234;2023-08-31T13:26:36;28.70;98.40
40670;DHT22;26355;45.528;9.234;2023-08-31T13:29:02;28.60;98.30
40670;DHT22;26355;45.528;9.234;2023-08-31T13:31:29;28.70;98.30
40670;DHT22;26355;45.528;9.234;2023-08-31T13:33:54;28.70;98.20
40670;DHT22;26355;45.528;9.234;2023-08-31T13:36:20;28.80;98.00
40670;DHT22;26355;45.528;9.234;2023-08-31T13:38:45;28.80;97.60
40670;DHT22;26355;45.528;9.234;2023-08-31T13:41:11;28.80;97.40
40670;DHT22;26355;45.528;9.234;2023-08-31T13:43:36;28.90;97.50
40670;DHT22;26355;45.528;9.234;2023-08-31T13:46:02;29.00;98.00
40670;DHT22;26355;45.528;9.234;2023-08-31T13:48:29;29.10;97.90
40670;DHT22;26355;45.528;9.234;2023-08-31T13:50:55;29.20;98.00
40670;DHT22;26355;45.528;9.234;2023-08-31T13:53:20;29.20;98.00
40670;DHT22;26355;45.528;9.234;2023-08-31T13:55:46;29.10;97.90
40670;DHT22;26355;45.528;9.234;2023-08-31T13:58:12;29.00;98.00
40670;DHT22;26355;45.528;9.234;2023-08-31T14:00:37;29.00;98.10
40670;DHT22;26355;45.528;9.234;2023-08-31T14:03:04;29.00;98.40
40670;DHT22;26355;45.528;9.234;2023-08-31T14:05:30;28.90;98.50
40670;DHT22;26355;45.528;9.234;2023-08-31T14:07:57;29.00;98.60
40670;DHT22;26355;45.528;9.234;2023-08-31T14:10:24;29.10;98.60
40670;DHT22;26355;45.528;9.234;2023-08-31T14:12:50;29.10;98.30
40670;DHT22;26355;45.528;9.234;2023-08-31T14:15:15;29.10;98.20
40670;DHT22;26355;45.528;9.234;2023-08-31T14:17:41;29.10;98.20
40670;DHT22;26355;45.528;9.234;2023-08-31T14:20:07;29.00;98.30
40670;DHT22;26355;45.528;9.234;2023-08-31T14:22:37;29.10;98.30
40670;DHT22;26355;45.528;9.234;2023-08-31T14:25:02;29.10;98.40
40670;DHT22;26355;45.528;9.234;2023-08-31T14:27:28;29.10;98.20
40670;DHT22;26355;45.528;9.234;2023-08-31T14:29:56;29.10;98.00
40670;DHT22;26355;45.528;9.234;2023-08-31T14:32:22;29.10;98.00
40670;DHT22;26355;45.528;9.234;2023-08-31T14:34:48;29.10;97.70
40670;DHT22;26355;45.528;9.234;2023-08-31T14:37:13;29.00;97.80
40670;DHT22;26355;45.528;9.234;2023-08-31T14:39:39;29.10;97.90
40670;DHT22;26355;45.528;9.234;2023-08-31T14:42:04;29.00;98.10
40670;DHT22;26355;45.528;9.234;2023-08-31T14:44:30;28.90;97.50
40670;DHT22;26355;45.528;9.234;2023-08-31T14:46:56;28.90;97.40
40670;DHT22;26355;45.528;9.234;2023-08-31T14:49:24;28.80;97.30
40670;DHT22;26355;45.528;9.234;2023-08-31T14:51:53;28.70;97.20
40670;DHT22;26355;45.528;9.234;2023-08-31T14:54:18;28.80;97.50
40670;DHT22;26355;45.528;9.234;2023-08-31T14:56:44;28.80;97.30
40670;DHT22;26355;45.528;9.234;2023-08-31T14:59:09;28.70;97.20
40670;DHT22;26355;45.528;9.234;2023-08-31T15:01:35;28.60;97.20
40670;DHT22;26355;45.528;9.234;2023-08-31T15:04:00;28.70;97.40
40670;DHT22;26355;45.528;9.234;2023-08-31T15:06:26;28.60;97.50
40670;DHT22;26355;45.528;9.234;2023-08-31T15:08:52;28.50;97.70
40670;DHT22;26355;45.528;9.234;2023-08-31T15:11:17;28.60;97.70
40670;DHT22;26355;45.528;9.234;2023-08-31T15:13:43;28.60;97.70
40670;DHT22;26355;45.528;9.234;2023-08-31T15:16:08;28.60;97.70
40670;DHT22;26355;45.528;9.234;2023-08-31T15:18:34;28.50;97.60
40670;DHT22;26355;45.528;9.234;2023-08-31T15:20:59;28.50;97.70
40670;DHT22;26355;45.528;9.234;2023-08-31T15:23:26;28.50;97.70
40670;DHT22;26355;45.528;9.234;2023-08-31T15:25:52;28.50;97.80
40670;DHT22;26355;45.528;9.234;2023-08-31T15:28:17;28.50;97.80
40670;DHT22;26355;45.528;9.234;2023-08-31T15:30:43;28.50;97.80
40670;DHT22;26355;45.528;9.234;2023-08-31T15:33:08;28.50;97.60
40670;DHT22;26355;45.528;9.234;2023-08-31T15:35:34;28.60;97.70
40670;DHT22;26355;45.528;9.234;2023-08-31T15:38:00;28.60;97.70
40670;DHT22;26355;45.528;9.234;2023-08-31T15:40:25;28.50;97.70
40670;DHT22;26355;45.528;9.234;2023-08-31T15:42:51;28.50;97.70
40670;DHT22;26355;45.528;9.234;2023-08-31T15:45:17;28.50;97.70